^^

Nearby METAR Reports

 

EGHH - Bournemouth Airp, United Kingdom
Distance from station: S 10mi, 17km
Updated: 23/02/2019 07:20
Fog
Fog
 Wind from NNE
Wind: NNE 1 mph , 2 km/h
Temperature: 3°C
Dew Point: 3°C
Humidity: 100%
Barometer: 1033 hPa
Summary: Fog
Visibility: 0 mile , 0 km
2019/02/23 07:20 EGHH 230720Z 03001KT 0100 R26/0300 FG VV/// 03/03 Q1033
EGDM - Boscombe Down, United Kingdom
Distance from station: N 16mi, 26km
Updated: 23/02/2019 06:50
Overcast
Overcast
 Wind from E
Wind: E 7 mph , 11 km/h
Temperature: 3°C
Wind Chill: 0°C
Dew Point: 3°C
Humidity: 100%
Barometer: 1032 hPa
Clouds: Overcast
Visibility: 0 mile , 0 km
Cloud details: Overcast 61 m
2019/02/23 06:50 EGDM 230650Z AUTO 10006KT 0050 UP OVC002/// 03/03 Q1032
 
EGVP - Middle Wallop, United Kingdom
Distance from station: NE 17mi, 27km
Updated: 23/02/2019 06:50

 Wind from N
Wind: N 2 mph , 4 km/h
Temperature: 1°C
Dew Point: 1°C
Humidity: 100%
Barometer: 1032 hPa
Visibility: 0 mile , 0 km
2019/02/23 06:50 EGVP 230650Z AUTO 01002KT 0100 // VV/// 01/01 Q1032
EGHI - Southampton Wx C, United Kingdom
Distance from station: E 19mi, 31km
Updated: 23/02/2019 07:20
Fog, Few clouds
Fog, Few clouds
 Wind from calm
Wind: Calm
Temperature: 4°C
Dew Point: 3°C
Humidity: 93%
Barometer: 1033 hPa
Summary: Fog
Clouds: Few Clouds
Visibility: 0 mile , 0 km
Cloud details: Few Clouds 183 m
2019/02/23 07:20 EGHI 230720Z 00000KT 0400 R20/0250 FG FEW006 04/03 Q1033
 
EGDY - Yeovilton (navy), United Kingdom
Distance from station: W 36mi, 58km
Updated: 23/02/2019 06:50
Mist, Clear
Mist, Clear
 Wind from SE
Wind: SE 6 mph , 9 km/h
Temperature: 6°C
Wind Chill: 4°C
Dew Point: 5°C
Humidity: 93%
Barometer: 1031 hPa
Summary: Mist
Clouds: Clear
Visibility: 3 miles , 4 km
2019/02/23 06:50 EGDY 230650Z AUTO 13005KT 4100 BR NCD 06/05 Q1031
EGUO - Colerne Raf, United Kingdom
Distance from station: NNW 41mi, 66km
Updated: 14/02/2019 22:50
NOT Current
Clear
Clear
 Wind from ENE
Wind: ENE 1 mph , 2 km/h
Temperature: 1°C
Dew Point: 0°C
Humidity: 93%
Barometer: 1029 hPa
Summary: Clear
Visibility: greater than 7 miles , 10 km
2019/02/14 22:50 EGUO 142250Z 06001KT CAVOK 01/00 Q1029 BLU NOSIG
 
EGVO - Odiham Raf, United Kingdom
Distance from station: ENE 42mi, 68km
Updated: 23/02/2019 06:50
Fog
Fog
 Wind from ESE
Wind: ESE 7 mph , 11 km/h
Temperature: 6°C
Wind Chill: 4°C
Dew Point: 6°C
Humidity: 100%
Barometer: 1033 hPa
Summary: Fog
Visibility: 0 mile , 0 km
2019/02/23 06:50 EGVO 230650Z AUTO 11006KT 0050 FG VV/// 06/06 Q1033
EGGD - Bristol/Lulsgate, United Kingdom
Distance from station: NW 50mi, 81km
Updated: 23/02/2019 07:20
Clear
Clear
 Wind from SE
Wind: SE 8 mph , 13 km/h
Temperature: 7°C
Wind Chill: 5°C
Dew Point: 4°C
Humidity: 81%
Barometer: 1031 hPa
Clouds: Clear
Visibility: 5 miles , 8 km
2019/02/23 07:20 EGGD 230720Z AUTO 14007KT 8000 NCD 07/04 Q1031